createdAt,value
2023-04-08T00:00:50.223Z,18.80
2023-04-08T00:03:52.601Z,18.07
2023-04-08T00:06:54.602Z,18.30
2023-04-08T00:09:57.140Z,18.33
2023-04-08T00:13:00.888Z,16.43
2023-04-08T00:16:03.534Z,17.43
2023-04-08T00:19:06.969Z,15.87
2023-04-08T00:22:08.954Z,17.97
2023-04-08T00:25:10.986Z,17.27
2023-04-08T00:28:14.212Z,16.57
2023-04-08T00:31:16.600Z,17.80
2023-04-08T00:34:18.463Z,18.17
2023-04-08T00:37:21.308Z,16.50
2023-04-08T00:40:23.181Z,18.23
2023-04-08T00:43:24.971Z,18.63
2023-04-08T00:46:27.050Z,17.20
2023-04-08T00:49:30.498Z,19.77
2023-04-08T00:52:32.366Z,17.50
2023-04-08T00:55:34.243Z,17.00
2023-04-08T00:58:36.177Z,16.43
2023-04-08T01:01:51.296Z,17.57
2023-04-08T01:05:05.474Z,16.33
2023-04-08T01:08:10.350Z,18.13
2023-04-08T01:11:14.499Z,17.97
2023-04-08T01:14:21.123Z,19.30
2023-04-08T01:17:23.593Z,19.10
2023-04-08T01:20:26.841Z,19.50
2023-04-08T01:23:51.501Z,19.90
2023-04-08T01:26:57.093Z,18.37
2023-04-08T01:30:01.276Z,19.03
2023-04-08T01:33:05.719Z,20.43
2023-04-08T01:36:09.150Z,17.37
2023-04-08T01:39:12.339Z,17.03
2023-04-08T01:42:15.321Z,18.90
2023-04-08T01:45:20.600Z,17.53
2023-04-08T01:48:23.536Z,20.00
2023-04-08T01:51:27.188Z,20.17
2023-04-08T01:54:29.124Z,18.70
2023-04-08T01:57:35.311Z,22.00
2023-04-08T02:00:38.962Z,18.40
2023-04-08T02:03:44.276Z,17.20
2023-04-08T02:06:47.160Z,17.93
2023-04-08T02:09:49.006Z,18.10
2023-04-08T02:12:51.007Z,18.47
2023-04-08T02:16:02.599Z,18.03
2023-04-08T02:19:13.129Z,22.93
2023-04-08T02:22:28.422Z,17.80
2023-04-08T02:25:31.997Z,19.97
2023-04-08T02:28:35.702Z,17.77
2023-04-08T02:31:42.008Z,18.30
2023-04-08T02:34:44.315Z,19.03
2023-04-08T02:37:49.345Z,19.03
2023-04-08T02:40:51.663Z,19.47
2023-04-08T02:43:55.614Z,20.30
2023-04-08T02:46:57.409Z,18.73
2023-04-08T02:49:59.379Z,17.13
2023-04-08T02:53:01.532Z,18.00
2023-04-08T02:56:03.295Z,20.80
2023-04-08T02:59:05.468Z,17.40
2023-04-08T03:02:07.437Z,17.13
2023-04-08T03:05:09.824Z,16.57
2023-04-08T03:08:11.751Z,15.87
2023-04-08T03:11:13.766Z,12.87
2023-04-08T03:14:15.596Z,11.43
2023-04-08T03:17:17.449Z,11.93
2023-04-08T03:20:19.249Z,10.90
2023-04-08T03:23:21.119Z,12.27
2023-04-08T03:26:22.934Z,14.57
2023-04-08T03:29:24.971Z,15.17
2023-04-08T03:32:27.278Z,13.60
2023-04-08T03:35:29.180Z,11.50
2023-04-08T03:38:31.126Z,12.60
2023-04-08T03:41:32.911Z,12.33
2023-04-08T03:44:34.880Z,14.40
2023-04-08T03:47:36.799Z,12.27
2023-04-08T03:50:38.607Z,12.70
2023-04-08T03:53:40.486Z,13.50
2023-04-08T03:56:42.277Z,13.20
2023-04-08T03:59:44.146Z,12.30
2023-04-08T04:02:46.322Z,11.63
2023-04-08T04:05:48.201Z,13.93
2023-04-08T04:08:50.622Z,11.23
2023-04-08T04:11:52.708Z,11.57
2023-04-08T04:14:54.531Z,12.90
2023-04-08T04:17:56.319Z,13.37
2023-04-08T04:20:58.112Z,11.37
2023-04-08T04:23:59.884Z,12.13
2023-04-08T04:27:01.682Z,13.17
2023-04-08T04:30:04.748Z,12.47
2023-04-08T04:33:07.266Z,14.03
2023-04-08T04:36:08.994Z,14.57
2023-04-08T04:39:10.796Z,12.33
2023-04-08T04:42:12.846Z,11.70
2023-04-08T04:45:17.865Z,11.73
2023-04-08T04:48:20.165Z,11.27
2023-04-08T04:51:22.016Z,11.00
2023-04-08T04:54:23.837Z,11.33
2023-04-08T04:57:25.660Z,12.70
2023-04-08T05:00:27.531Z,9.57
2023-04-08T05:03:29.371Z,11.87
2023-04-08T05:06:31.130Z,13.53
2023-04-08T05:09:33.636Z,11.43
2023-04-08T05:12:37.513Z,9.90
2023-04-08T05:15:39.717Z,13.57
2023-04-08T05:18:41.806Z,11.97
2023-04-08T05:21:43.615Z,12.77
2023-04-08T05:24:45.451Z,10.70
2023-04-08T05:27:47.297Z,11.77
2023-04-08T05:30:50.796Z,12.37
2023-04-08T05:33:53.028Z,11.60
2023-04-08T05:36:54.837Z,11.00
2023-04-08T05:39:56.670Z,11.97
2023-04-08T05:42:58.472Z,13.30
2023-04-08T05:46:00.245Z,14.77
2023-04-08T05:49:02.293Z,13.33
2023-04-08T05:52:04.125Z,10.73
2023-04-08T05:55:06.681Z,14.60
2023-04-08T05:58:08.541Z,10.93
2023-04-08T06:01:10.456Z,13.80
2023-04-08T06:04:12.724Z,10.53
2023-04-08T06:07:14.688Z,11.53
2023-04-08T06:10:16.725Z,12.10
2023-04-08T06:13:20.299Z,10.60
2023-04-08T06:16:22.576Z,10.70
2023-04-08T06:19:27.885Z,8.90
2023-04-08T06:22:30.018Z,9.33
2023-04-08T06:25:31.878Z,8.43
2023-04-08T06:28:33.736Z,9.00
2023-04-08T06:31:35.568Z,7.70
2023-04-08T06:34:38.343Z,9.53
2023-04-08T06:37:41.941Z,11.17
2023-04-08T06:40:43.774Z,10.97
2023-04-08T06:43:45.633Z,8.70
2023-04-08T06:46:47.414Z,8.60
2023-04-08T06:49:49.358Z,8.53
2023-04-08T06:52:51.147Z,7.20
2023-04-08T06:55:53.009Z,9.17
2023-04-08T06:58:54.946Z,11.50
2023-04-08T07:01:56.879Z,7.03
2023-04-08T07:04:58.896Z,8.17
2023-04-08T07:08:00.787Z,6.90
2023-04-08T07:11:02.875Z,7.23
2023-04-08T07:14:04.795Z,6.40
2023-04-08T07:17:06.794Z,6.73
2023-04-08T07:20:09.252Z,7.17
2023-04-08T07:23:11.343Z,6.00
2023-04-08T07:26:13.143Z,6.30
2023-04-08T07:29:15.021Z,7.00
2023-04-08T07:32:17.027Z,6.70
2023-04-08T07:35:24.297Z,6.60
2023-04-08T07:38:26.217Z,5.13
2023-04-08T07:41:28.192Z,7.17
2023-04-08T07:44:30.119Z,5.60
2023-04-08T07:47:33.338Z,6.30
2023-04-08T07:51:08.936Z,5.00
2023-04-08T07:54:00.368Z,4.13
2023-04-08T07:57:02.648Z,4.33
2023-04-08T08:00:06.546Z,4.63
2023-04-08T08:03:08.508Z,4.17
2023-04-08T08:06:12.241Z,4.27
2023-04-08T08:09:14.472Z,4.80
2023-04-08T08:12:16.615Z,5.20
2023-04-08T08:15:18.920Z,5.10
2023-04-08T08:18:21.244Z,3.67
2023-04-08T08:21:23.327Z,3.17
2023-04-08T08:24:26.217Z,4.00
2023-04-08T08:27:28.017Z,3.63
2023-04-08T08:30:29.954Z,4.27
2023-04-08T08:33:33.312Z,4.40
2023-04-08T08:36:35.891Z,3.97
2023-04-08T08:39:37.761Z,3.37
2023-04-08T08:42:40.113Z,3.30
2023-04-08T08:45:42.866Z,4.00
2023-04-08T08:48:45.468Z,4.10
2023-04-08T08:51:47.972Z,3.70
2023-04-08T08:54:58.925Z,2.90
2023-04-08T08:58:02.455Z,2.57
2023-04-08T09:01:24.665Z,3.23
2023-04-08T09:04:26.949Z,3.03
2023-04-08T09:07:30.730Z,2.50
2023-04-08T09:10:33.629Z,2.93
2023-04-08T09:13:39.260Z,2.00
2023-04-08T09:16:44.436Z,2.70
2023-04-08T09:20:09.710Z,2.77
2023-04-08T09:23:11.608Z,3.10
2023-04-08T09:26:22.055Z,2.30
2023-04-08T09:29:27.641Z,1.70
2023-04-08T09:32:54.325Z,2.13
2023-04-08T09:35:57.752Z,1.60
2023-04-08T09:38:59.791Z,1.90
2023-04-08T09:42:08.277Z,1.70
2023-04-08T09:45:11.976Z,1.97
2023-04-08T09:48:24.276Z,2.40
2023-04-08T09:51:28.303Z,1.53
2023-04-08T09:54:39.155Z,2.77
2023-04-08T09:57:46.842Z,3.67
2023-04-08T10:00:52.274Z,2.00
2023-04-08T10:03:57.434Z,3.23
2023-04-08T10:07:07.503Z,3.03
2023-04-08T10:10:11.906Z,2.83
2023-04-08T10:13:13.978Z,3.70
2023-04-08T10:16:25.371Z,2.87
2023-04-08T10:19:41.253Z,2.87
2023-04-08T10:22:48.073Z,2.53
2023-04-08T10:25:49.959Z,2.30
2023-04-08T10:28:51.892Z,3.37
2023-04-08T10:31:53.990Z,2.53
2023-04-08T10:34:56.052Z,2.20
2023-04-08T10:37:59.074Z,3.30
2023-04-08T10:41:00.951Z,2.60
2023-04-08T10:44:06.128Z,3.00
2023-04-08T10:47:08.081Z,5.50
2023-04-08T10:50:16.981Z,6.23
2023-04-08T10:53:18.946Z,4.83
2023-04-08T10:56:22.070Z,4.77
2023-04-08T10:59:33.024Z,5.60
2023-04-08T11:02:38.935Z,7.20
2023-04-08T11:05:41.311Z,6.57
2023-04-08T11:08:44.795Z,6.33
2023-04-08T11:11:46.929Z,6.83
2023-04-08T11:14:49.875Z,5.43
2023-04-08T11:17:52.199Z,6.00
2023-04-08T11:20:54.613Z,5.53
2023-04-08T11:23:56.560Z,7.30
2023-04-08T11:26:59.300Z,7.37
2023-04-08T11:30:01.742Z,5.80
2023-04-08T11:33:03.905Z,7.67
2023-04-08T11:36:05.986Z,5.97
2023-04-08T11:39:12.322Z,8.87
2023-04-08T11:42:31.486Z,7.67
2023-04-08T11:45:41.679Z,8.63
2023-04-08T11:49:00.954Z,8.90
2023-04-08T11:52:03.409Z,7.60
2023-04-08T11:55:05.668Z,7.90
2023-04-08T11:58:07.791Z,8.60
2023-04-08T12:01:09.929Z,8.03
2023-04-08T12:04:12.060Z,9.23
2023-04-08T12:07:14.450Z,8.00
2023-04-08T12:10:16.549Z,7.97
2023-04-08T12:13:18.349Z,7.90
2023-04-08T12:16:20.833Z,8.13
2023-04-08T12:19:22.624Z,7.33
2023-04-08T12:22:24.435Z,7.10
2023-04-08T12:25:27.773Z,7.67
2023-04-08T12:28:30.118Z,8.67
2023-04-08T12:31:31.993Z,9.17
2023-04-08T12:34:34.294Z,9.57
2023-04-08T12:37:36.452Z,9.90
2023-04-08T12:40:38.502Z,8.33
2023-04-08T12:43:41.660Z,9.10
2023-04-08T12:46:43.697Z,10.50
2023-04-08T12:49:49.732Z,9.83
2023-04-08T12:52:52.047Z,10.63
2023-04-08T12:55:57.271Z,9.83
2023-04-08T12:59:01.128Z,10.17
2023-04-08T13:02:03.045Z,11.67
2023-04-08T13:05:05.225Z,11.40
2023-04-08T13:08:07.200Z,10.03
2023-04-08T13:11:09.272Z,9.17
2023-04-08T13:14:14.033Z,11.17
2023-04-08T13:17:15.944Z,12.97
2023-04-08T13:20:17.828Z,13.50
2023-04-08T13:23:19.925Z,11.67
2023-04-08T13:26:22.252Z,11.63
2023-04-08T13:29:24.387Z,12.30
2023-04-08T13:32:26.201Z,11.73
2023-04-08T13:35:28.049Z,12.70
2023-04-08T13:38:30.138Z,12.20
2023-04-08T13:41:32.055Z,11.70
2023-04-08T13:44:33.983Z,11.10
2023-04-08T13:47:37.764Z,11.70
2023-04-08T13:50:41.705Z,10.90
2023-04-08T13:53:43.565Z,12.23
2023-04-08T13:56:48.416Z,12.20
2023-04-08T13:59:50.416Z,10.17
2023-04-08T14:02:55.443Z,11.43
2023-04-08T14:06:01.570Z,10.13
2023-04-08T14:09:03.830Z,11.83
2023-04-08T14:12:05.732Z,10.47
2023-04-08T14:15:08.363Z,11.27
2023-04-08T14:18:10.719Z,11.03
2023-04-08T14:21:14.922Z,11.30
2023-04-08T14:24:16.762Z,11.83
2023-04-08T14:27:18.497Z,13.50
2023-04-08T14:30:20.705Z,13.77
2023-04-08T14:33:22.492Z,13.00
2023-04-08T14:36:24.456Z,13.93
2023-04-08T14:39:27.131Z,14.60
2023-04-08T14:42:28.953Z,14.63
2023-04-08T14:45:31.733Z,16.17
2023-04-08T14:48:33.607Z,15.47
2023-04-08T14:51:37.783Z,15.50
2023-04-08T14:54:39.705Z,15.33
2023-04-08T14:57:41.488Z,13.80
2023-04-08T15:00:45.325Z,14.37
2023-04-08T15:03:48.672Z,15.93
2023-04-08T15:06:50.768Z,16.43
2023-04-08T15:09:54.219Z,14.87
2023-04-08T15:12:56.156Z,17.10
2023-04-08T15:15:59.128Z,17.00
2023-04-08T15:19:00.962Z,17.17
2023-04-08T15:22:02.813Z,16.27
2023-04-08T15:25:05.475Z,18.23
2023-04-08T15:28:08.030Z,18.70
2023-04-08T15:31:10.094Z,17.50
2023-04-08T15:34:11.828Z,17.87
2023-04-08T15:37:13.737Z,18.50
2023-04-08T15:40:15.822Z,20.60
2023-04-08T15:43:17.648Z,19.07
2023-04-08T15:46:20.892Z,19.83
2023-04-08T15:49:24.310Z,21.20
2023-04-08T15:52:27.068Z,17.73
2023-04-08T15:55:28.928Z,20.47
2023-04-08T15:58:30.802Z,19.87
2023-04-08T16:01:33.314Z,17.73
2023-04-08T16:04:35.477Z,21.07
2023-04-08T16:07:37.511Z,23.43
2023-04-08T16:10:39.481Z,23.10
2023-04-08T16:13:42.432Z,22.27
2023-04-08T16:16:44.730Z,26.23
2023-04-08T16:19:47.322Z,21.83
2023-04-08T16:22:50.197Z,23.90
2023-04-08T16:25:52.196Z,19.13
2023-04-08T16:28:55.651Z,21.00
2023-04-08T16:31:57.619Z,20.03
2023-04-08T16:34:59.392Z,23.10
2023-04-08T16:38:01.228Z,20.90
2023-04-08T16:41:06.140Z,23.77
2023-04-08T16:44:07.898Z,20.23
2023-04-08T16:47:09.686Z,24.67
2023-04-08T16:50:11.796Z,23.83
2023-04-08T16:53:13.581Z,22.70
2023-04-08T16:56:16.572Z,22.73
2023-04-08T16:59:18.462Z,22.33
2023-04-08T17:02:21.656Z,22.03
2023-04-08T17:05:24.081Z,20.33
2023-04-08T17:08:26.526Z,23.90
2023-04-08T17:11:28.433Z,21.10
2023-04-08T17:14:31.221Z,25.03
2023-04-08T17:17:33.191Z,24.73
2023-04-08T17:20:34.978Z,21.40
2023-04-08T17:23:36.842Z,23.07
2023-04-08T17:26:41.710Z,21.43
2023-04-08T17:29:43.618Z,25.37
2023-04-08T17:32:45.987Z,24.40
2023-04-08T17:35:47.976Z,22.97
2023-04-08T17:38:50.871Z,26.63
2023-04-08T17:41:53.157Z,22.37
2023-04-08T17:44:56.136Z,22.20
2023-04-08T17:47:59.330Z,23.13
2023-04-08T17:51:02.776Z,22.97
2023-04-08T17:54:05.860Z,36.53
2023-04-08T17:57:07.811Z,30.13
2023-04-08T18:00:10.071Z,40.17
2023-04-08T18:03:12.361Z,28.63
2023-04-08T18:06:14.303Z,24.87
2023-04-08T18:09:16.141Z,25.00
2023-04-08T18:12:18.311Z,23.30
2023-04-08T18:15:20.471Z,22.97
2023-04-08T18:18:23.376Z,23.17
2023-04-08T18:21:25.462Z,21.53
2023-04-08T18:24:27.279Z,20.77
2023-04-08T18:27:29.079Z,24.43
2023-04-08T18:30:31.196Z,24.13
2023-04-08T18:33:33.709Z,23.70
2023-04-08T18:36:36.205Z,23.83
2023-04-08T18:39:41.476Z,29.43
2023-04-08T18:42:43.260Z,26.07
2023-04-08T18:45:45.782Z,24.43
2023-04-08T18:48:49.312Z,24.93
2023-04-08T18:52:01.342Z,25.57
2023-04-08T18:55:05.352Z,23.70
2023-04-08T18:58:07.475Z,26.40
2023-04-08T19:01:09.979Z,23.37
2023-04-08T19:04:12.233Z,23.40
2023-04-08T19:07:14.157Z,23.40
2023-04-08T19:10:16.083Z,26.30
2023-04-08T19:13:18.057Z,22.33
2023-04-08T19:16:20.124Z,23.37
2023-04-08T19:19:22.110Z,25.60
2023-04-08T19:22:25.043Z,29.37
2023-04-08T19:25:27.069Z,28.07
2023-04-08T19:28:28.962Z,28.07
2023-04-08T19:31:30.864Z,26.67
2023-04-08T19:34:37.490Z,27.50
2023-04-08T19:37:39.420Z,29.00
2023-04-08T19:40:41.204Z,27.53
2023-04-08T19:43:42.962Z,27.83
2023-04-08T19:46:44.817Z,29.83
2023-04-08T19:49:46.716Z,26.13
2023-04-08T19:52:48.948Z,28.37
2023-04-08T19:55:58.116Z,29.53
2023-04-08T19:59:02.031Z,27.80
2023-04-08T20:02:04.179Z,32.13
2023-04-08T20:05:07.571Z,30.00
2023-04-08T20:08:09.397Z,30.07
2023-04-08T20:11:11.548Z,30.07
2023-04-08T20:14:13.346Z,31.57
2023-04-08T20:17:16.588Z,29.90
2023-04-08T20:20:18.574Z,34.60
2023-04-08T20:23:21.003Z,29.10
2023-04-08T20:26:22.761Z,29.17
2023-04-08T20:29:24.588Z,34.17
2023-04-08T20:32:27.139Z,34.43
2023-04-08T20:35:28.938Z,33.47
2023-04-08T20:38:35.216Z,35.77
2023-04-08T20:41:37.744Z,38.00
2023-04-08T20:44:39.608Z,35.57
2023-04-08T20:47:41.550Z,40.43
2023-04-08T20:50:43.258Z,36.93
2023-04-08T20:53:45.130Z,37.03
2023-04-08T20:56:46.920Z,38.63
2023-04-08T20:59:48.795Z,36.27
2023-04-08T21:02:50.969Z,38.67
2023-04-08T21:05:55.366Z,39.23
2023-04-08T21:08:57.320Z,37.33
2023-04-08T21:11:59.260Z,35.90
2023-04-08T21:15:01.128Z,36.20
2023-04-08T21:18:04.138Z,34.87
2023-04-08T21:21:06.122Z,35.27
2023-04-08T21:24:09.503Z,36.47
2023-04-08T21:27:12.180Z,36.27
2023-04-08T21:30:14.166Z,35.27
2023-04-08T21:33:15.972Z,33.30
2023-04-08T21:36:18.149Z,34.80
2023-04-08T21:39:19.978Z,34.07
2023-04-08T21:42:22.888Z,34.20
2023-04-08T21:45:25.006Z,38.17
2023-04-08T21:48:26.882Z,35.13
2023-04-08T21:51:28.717Z,38.10
2023-04-08T21:54:30.829Z,36.23
2023-04-08T21:57:32.821Z,35.23
2023-04-08T22:00:34.899Z,33.27
2023-04-08T22:03:36.751Z,34.73
2023-04-08T22:06:38.777Z,33.43
2023-04-08T22:09:40.989Z,32.10
2023-04-08T22:12:42.840Z,35.87
2023-04-08T22:15:44.644Z,31.90
2023-04-08T22:18:46.667Z,34.30
2023-04-08T22:21:50.213Z,31.00
2023-04-08T22:24:52.000Z,32.33
2023-04-08T22:27:53.820Z,33.27
2023-04-08T22:30:55.585Z,31.10
2023-04-08T22:33:57.423Z,31.03
2023-04-08T22:36:59.246Z,31.63
2023-04-08T22:40:01.336Z,31.40
2023-04-08T22:43:03.364Z,31.67
2023-04-08T22:46:05.642Z,28.73
2023-04-08T22:49:07.668Z,29.20
2023-04-08T22:52:09.543Z,29.27
2023-04-08T22:55:11.350Z,32.77
2023-04-08T22:58:13.206Z,31.47
2023-04-08T23:01:17.278Z,35.50
2023-04-08T23:04:19.296Z,33.13
2023-04-08T23:07:21.207Z,33.43
2023-04-08T23:10:22.931Z,33.03
2023-04-08T23:13:24.756Z,32.00
2023-04-08T23:16:26.661Z,32.63
2023-04-08T23:19:28.478Z,30.83
2023-04-08T23:22:30.440Z,30.73
2023-04-08T23:25:36.091Z,31.13
2023-04-08T23:28:37.913Z,30.77
2023-04-08T23:31:39.973Z,33.57
2023-04-08T23:34:41.815Z,32.10
2023-04-08T23:37:43.583Z,32.93
2023-04-08T23:40:45.422Z,30.83
2023-04-08T23:43:47.359Z,29.77
2023-04-08T23:46:49.252Z,30.60
2023-04-08T23:49:51.405Z,32.87
2023-04-08T23:52:53.137Z,29.67
2023-04-08T23:55:55.056Z,33.27
2023-04-08T23:58:57.263Z,30.93
